sensor_id;sensor_type;location;lat;lon;timestamp;P1;durP1;ratioP1;P2;durP2;ratioP2
75990;SDS011;64673;52.276;10.560;2023-05-07T00:00:36;23.50;;;11.40;;
75990;SDS011;64673;52.276;10.560;2023-05-07T00:03:02;22.08;;;10.05;;
75990;SDS011;64673;52.276;10.560;2023-05-07T00:05:27;25.58;;;11.50;;
75990;SDS011;64673;52.276;10.560;2023-05-07T00:07:53;24.45;;;12.02;;
75990;SDS011;64673;52.276;10.560;2023-05-07T00:10:18;22.58;;;10.55;;
75990;SDS011;64673;52.276;10.560;2023-05-07T00:12:44;23.38;;;11.55;;
75990;SDS011;64673;52.276;10.560;2023-05-07T00:15:10;23.98;;;11.55;;
75990;SDS011;64673;52.276;10.560;2023-05-07T00:17:36;25.67;;;12.55;;
75990;SDS011;64673;52.276;10.560;2023-05-07T00:20:02;21.75;;;10.45;;
75990;SDS011;64673;52.276;10.560;2023-05-07T00:22:29;24.80;;;11.05;;
75990;SDS011;64673;52.276;10.560;2023-05-07T00:24:55;22.88;;;11.38;;
75990;SDS011;64673;52.276;10.560;2023-05-07T00:27:21;21.42;;;10.27;;
75990;SDS011;64673;52.276;10.560;2023-05-07T00:29:47;19.20;;;9.77;;
75990;SDS011;64673;52.276;10.560;2023-05-07T00:32:12;21.40;;;10.13;;
75990;SDS011;64673;52.276;10.560;2023-05-07T00:34:40;20.75;;;10.07;;
75990;SDS011;64673;52.276;10.560;2023-05-07T00:37:06;19.25;;;8.32;;
75990;SDS011;64673;52.276;10.560;2023-05-07T00:39:34;22.70;;;9.20;;
75990;SDS011;64673;52.276;10.560;2023-05-07T00:41:59;19.50;;;8.30;;
75990;SDS011;64673;52.276;10.560;2023-05-07T00:44:25;18.35;;;7.75;;
75990;SDS011;64673;52.276;10.560;2023-05-07T00:46:51;16.45;;;8.15;;
75990;SDS011;64673;52.276;10.560;2023-05-07T00:49:17;16.30;;;8.07;;
75990;SDS011;64673;52.276;10.560;2023-05-07T00:51:43;19.33;;;8.65;;
75990;SDS011;64673;52.276;10.560;2023-05-07T00:54:09;19.67;;;8.18;;
75990;SDS011;64673;52.276;10.560;2023-05-07T00:56:36;18.30;;;8.32;;
75990;SDS011;64673;52.276;10.560;2023-05-07T00:59:02;17.63;;;8.02;;
75990;SDS011;64673;52.276;10.560;2023-05-07T01:01:28;18.15;;;8.15;;
75990;SDS011;64673;52.276;10.560;2023-05-07T01:03:53;16.45;;;8.25;;
75990;SDS011;64673;52.276;10.560;2023-05-07T01:06:18;16.45;;;8.15;;
75990;SDS011;64673;52.276;10.560;2023-05-07T01:08:47;15.23;;;7.60;;
75990;SDS011;64673;52.276;10.560;2023-05-07T01:11:13;15.25;;;7.38;;
75990;SDS011;64673;52.276;10.560;2023-05-07T01:13:39;15.32;;;7.03;;
75990;SDS011;64673;52.276;10.560;2023-05-07T01:16:05;15.68;;;7.50;;
75990;SDS011;64673;52.276;10.560;2023-05-07T01:18:31;14.88;;;6.97;;
75990;SDS011;64673;52.276;10.560;2023-05-07T01:21:00;13.63;;;6.85;;
75990;SDS011;64673;52.276;10.560;2023-05-07T01:23:28;15.15;;;7.20;;
75990;SDS011;64673;52.276;10.560;2023-05-07T01:25:55;13.68;;;6.80;;
75990;SDS011;64673;52.276;10.560;2023-05-07T01:28:21;15.73;;;7.10;;
75990;SDS011;64673;52.276;10.560;2023-05-07T01:30:48;13.82;;;6.70;;
75990;SDS011;64673;52.276;10.560;2023-05-07T01:33:18;13.57;;;6.45;;
75990;SDS011;64673;52.276;10.560;2023-05-07T01:35:47;14.15;;;6.55;;
75990;SDS011;64673;52.276;10.560;2023-05-07T01:38:15;15.23;;;7.40;;
75990;SDS011;64673;52.276;10.560;2023-05-07T01:40:41;14.50;;;6.57;;
75990;SDS011;64673;52.276;10.560;2023-05-07T01:43:07;14.02;;;6.78;;
75990;SDS011;64673;52.276;10.560;2023-05-07T01:45:34;11.73;;;6.03;;
75990;SDS011;64673;52.276;10.560;2023-05-07T01:48:00;12.88;;;6.50;;
75990;SDS011;64673;52.276;10.560;2023-05-07T01:50:26;14.07;;;6.60;;
75990;SDS011;64673;52.276;10.560;2023-05-07T01:52:52;13.55;;;6.40;;
75990;SDS011;64673;52.276;10.560;2023-05-07T01:55:18;13.45;;;6.97;;
75990;SDS011;64673;52.276;10.560;2023-05-07T01:57:44;12.98;;;6.35;;
75990;SDS011;64673;52.276;10.560;2023-05-07T02:00:09;13.93;;;6.45;;
75990;SDS011;64673;52.276;10.560;2023-05-07T02:02:35;18.13;;;6.93;;
75990;SDS011;64673;52.276;10.560;2023-05-07T02:05:01;13.05;;;6.63;;
75990;SDS011;64673;52.276;10.560;2023-05-07T02:07:27;15.73;;;6.75;;
75990;SDS011;64673;52.276;10.560;2023-05-07T02:09:52;13.80;;;7.20;;
75990;SDS011;64673;52.276;10.560;2023-05-07T02:12:18;12.68;;;6.15;;
75990;SDS011;64673;52.276;10.560;2023-05-07T02:14:44;13.52;;;6.15;;
75990;SDS011;64673;52.276;10.560;2023-05-07T02:17:09;13.25;;;6.40;;
75990;SDS011;64673;52.276;10.560;2023-05-07T02:19:34;10.68;;;5.65;;
75990;SDS011;64673;52.276;10.560;2023-05-07T02:22:00;12.98;;;6.72;;
75990;SDS011;64673;52.276;10.560;2023-05-07T02:24:25;11.30;;;6.00;;
75990;SDS011;64673;52.276;10.560;2023-05-07T02:26:50;13.75;;;6.45;;
75990;SDS011;64673;52.276;10.560;2023-05-07T02:29:16;13.90;;;6.75;;
75990;SDS011;64673;52.276;10.560;2023-05-07T02:31:41;15.88;;;7.22;;
75990;SDS011;64673;52.276;10.560;2023-05-07T02:34:06;11.70;;;6.25;;
75990;SDS011;64673;52.276;10.560;2023-05-07T02:36:32;12.48;;;6.38;;
75990;SDS011;64673;52.276;10.560;2023-05-07T02:38:57;15.27;;;7.05;;
75990;SDS011;64673;52.276;10.560;2023-05-07T02:41:22;11.32;;;6.35;;
75990;SDS011;64673;52.276;10.560;2023-05-07T02:43:47;14.23;;;6.40;;
75990;SDS011;64673;52.276;10.560;2023-05-07T02:46:13;13.20;;;6.22;;
75990;SDS011;64673;52.276;10.560;2023-05-07T02:48:38;13.73;;;5.97;;
75990;SDS011;64673;52.276;10.560;2023-05-07T02:51:04;13.07;;;6.80;;
75990;SDS011;64673;52.276;10.560;2023-05-07T02:53:30;12.20;;;5.53;;
75990;SDS011;64673;52.276;10.560;2023-05-07T02:55:56;12.13;;;5.85;;
75990;SDS011;64673;52.276;10.560;2023-05-07T02:58:22;11.50;;;5.82;;
75990;SDS011;64673;52.276;10.560;2023-05-07T03:00:48;10.82;;;5.82;;
75990;SDS011;64673;52.276;10.560;2023-05-07T03:03:13;13.98;;;5.93;;
75990;SDS011;64673;52.276;10.560;2023-05-07T03:05:39;11.90;;;6.10;;
75990;SDS011;64673;52.276;10.560;2023-05-07T03:08:05;10.18;;;5.50;;
75990;SDS011;64673;52.276;10.560;2023-05-07T03:10:30;11.70;;;6.03;;
75990;SDS011;64673;52.276;10.560;2023-05-07T03:12:55;10.63;;;5.35;;
75990;SDS011;64673;52.276;10.560;2023-05-07T03:15:21;10.77;;;5.80;;
75990;SDS011;64673;52.276;10.560;2023-05-07T03:17:47;10.68;;;5.63;;
75990;SDS011;64673;52.276;10.560;2023-05-07T03:20:12;14.30;;;6.20;;
75990;SDS011;64673;52.276;10.560;2023-05-07T03:22:38;12.40;;;5.57;;
75990;SDS011;64673;52.276;10.560;2023-05-07T03:25:04;11.18;;;5.72;;
75990;SDS011;64673;52.276;10.560;2023-05-07T03:27:29;11.65;;;5.95;;
75990;SDS011;64673;52.276;10.560;2023-05-07T03:29:55;12.20;;;7.03;;
75990;SDS011;64673;52.276;10.560;2023-05-07T03:32:20;13.60;;;6.53;;
75990;SDS011;64673;52.276;10.560;2023-05-07T03:34:46;13.93;;;6.20;;
75990;SDS011;64673;52.276;10.560;2023-05-07T03:37:11;13.13;;;6.50;;
75990;SDS011;64673;52.276;10.560;2023-05-07T03:39:36;13.93;;;7.10;;
75990;SDS011;64673;52.276;10.560;2023-05-07T03:42:02;14.85;;;6.55;;
75990;SDS011;64673;52.276;10.560;2023-05-07T03:44:27;12.65;;;6.82;;
75990;SDS011;64673;52.276;10.560;2023-05-07T03:46:53;12.60;;;6.30;;
75990;SDS011;64673;52.276;10.560;2023-05-07T03:49:18;11.85;;;6.45;;
75990;SDS011;64673;52.276;10.560;2023-05-07T03:51:44;11.77;;;6.70;;
75990;SDS011;64673;52.276;10.560;2023-05-07T03:54:09;12.95;;;5.88;;
75990;SDS011;64673;52.276;10.560;2023-05-07T03:56:34;11.93;;;6.22;;
75990;SDS011;64673;52.276;10.560;2023-05-07T03:59:00;10.35;;;5.32;;
75990;SDS011;64673;52.276;10.560;2023-05-07T04:01:26;10.43;;;5.57;;
75990;SDS011;64673;52.276;10.560;2023-05-07T04:03:51;8.95;;;5.20;;
75990;SDS011;64673;52.276;10.560;2023-05-07T04:06:17;10.40;;;5.00;;
75990;SDS011;64673;52.276;10.560;2023-05-07T04:08:42;9.77;;;5.68;;
75990;SDS011;64673;52.276;10.560;2023-05-07T04:11:08;9.02;;;5.47;;
75990;SDS011;64673;52.276;10.560;2023-05-07T04:13:33;8.73;;;5.13;;
75990;SDS011;64673;52.276;10.560;2023-05-07T04:16:00;9.50;;;4.90;;
75990;SDS011;64673;52.276;10.560;2023-05-07T04:18:26;9.90;;;5.97;;
75990;SDS011;64673;52.276;10.560;2023-05-07T04:20:52;8.68;;;5.03;;
75990;SDS011;64673;52.276;10.560;2023-05-07T04:23:17;9.50;;;5.22;;
75990;SDS011;64673;52.276;10.560;2023-05-07T04:25:42;8.30;;;5.00;;
75990;SDS011;64673;52.276;10.560;2023-05-07T04:28:08;10.52;;;5.25;;
75990;SDS011;64673;52.276;10.560;2023-05-07T04:30:33;9.38;;;5.28;;
75990;SDS011;64673;52.276;10.560;2023-05-07T04:32:58;10.20;;;5.30;;
75990;SDS011;64673;52.276;10.560;2023-05-07T04:35:24;10.18;;;5.78;;
75990;SDS011;64673;52.276;10.560;2023-05-07T04:37:49;11.00;;;5.88;;
75990;SDS011;64673;52.276;10.560;2023-05-07T04:40:14;9.70;;;5.35;;
75990;SDS011;64673;52.276;10.560;2023-05-07T04:42:41;9.02;;;5.38;;
75990;SDS011;64673;52.276;10.560;2023-05-07T04:45:06;10.38;;;5.70;;
75990;SDS011;64673;52.276;10.560;2023-05-07T04:47:33;9.63;;;5.22;;
75990;SDS011;64673;52.276;10.560;2023-05-07T04:49:59;10.65;;;5.85;;
75990;SDS011;64673;52.276;10.560;2023-05-07T04:52:24;10.18;;;5.45;;
75990;SDS011;64673;52.276;10.560;2023-05-07T04:54:50;7.43;;;4.70;;
75990;SDS011;64673;52.276;10.560;2023-05-07T04:57:15;7.75;;;4.55;;
75990;SDS011;64673;52.276;10.560;2023-05-07T04:59:42;8.32;;;4.93;;
75990;SDS011;64673;52.276;10.560;2023-05-07T05:02:08;11.60;;;5.78;;
75990;SDS011;64673;52.276;10.560;2023-05-07T05:04:33;9.93;;;4.53;;
75990;SDS011;64673;52.276;10.560;2023-05-07T05:06:58;8.38;;;4.78;;
75990;SDS011;64673;52.276;10.560;2023-05-07T05:09:24;7.13;;;3.88;;
75990;SDS011;64673;52.276;10.560;2023-05-07T05:11:49;7.53;;;4.70;;
75990;SDS011;64673;52.276;10.560;2023-05-07T05:14:15;6.90;;;4.32;;
75990;SDS011;64673;52.276;10.560;2023-05-07T05:16:40;8.30;;;4.70;;
75990;SDS011;64673;52.276;10.560;2023-05-07T05:19:05;8.77;;;5.03;;
75990;SDS011;64673;52.276;10.560;2023-05-07T05:21:31;9.23;;;5.13;;
75990;SDS011;64673;52.276;10.560;2023-05-07T05:23:57;8.63;;;4.85;;
75990;SDS011;64673;52.276;10.560;2023-05-07T05:26:22;8.88;;;5.38;;
75990;SDS011;64673;52.276;10.560;2023-05-07T05:28:47;9.65;;;5.50;;
75990;SDS011;64673;52.276;10.560;2023-05-07T05:31:13;10.52;;;5.68;;
75990;SDS011;64673;52.276;10.560;2023-05-07T05:33:39;11.82;;;6.03;;
75990;SDS011;64673;52.276;10.560;2023-05-07T05:36:05;12.07;;;6.13;;
75990;SDS011;64673;52.276;10.560;2023-05-07T05:38:30;9.32;;;5.40;;
75990;SDS011;64673;52.276;10.560;2023-05-07T05:40:56;11.43;;;6.50;;
75990;SDS011;64673;52.276;10.560;2023-05-07T05:43:21;9.70;;;5.82;;
75990;SDS011;64673;52.276;10.560;2023-05-07T05:45:46;11.15;;;6.28;;
75990;SDS011;64673;52.276;10.560;2023-05-07T05:48:12;12.45;;;6.38;;
75990;SDS011;64673;52.276;10.560;2023-05-07T05:50:37;11.65;;;6.50;;
75990;SDS011;64673;52.276;10.560;2023-05-07T05:53:02;11.57;;;6.32;;
75990;SDS011;64673;52.276;10.560;2023-05-07T05:55:28;10.60;;;6.10;;
75990;SDS011;64673;52.276;10.560;2023-05-07T05:57:53;11.35;;;6.50;;
75990;SDS011;64673;52.276;10.560;2023-05-07T06:00:19;10.02;;;5.70;;
75990;SDS011;64673;52.276;10.560;2023-05-07T06:02:47;11.18;;;6.45;;
75990;SDS011;64673;52.276;10.560;2023-05-07T06:05:13;11.38;;;6.47;;
75990;SDS011;64673;52.276;10.560;2023-05-07T06:07:38;11.70;;;6.97;;
75990;SDS011;64673;52.276;10.560;2023-05-07T06:10:03;12.05;;;6.75;;
75990;SDS011;64673;52.276;10.560;2023-05-07T06:12:29;10.02;;;6.40;;
75990;SDS011;64673;52.276;10.560;2023-05-07T06:14:54;10.50;;;6.78;;
75990;SDS011;64673;52.276;10.560;2023-05-07T06:17:20;11.00;;;6.07;;
75990;SDS011;64673;52.276;10.560;2023-05-07T06:19:45;10.70;;;6.10;;
75990;SDS011;64673;52.276;10.560;2023-05-07T06:22:10;9.98;;;6.15;;
75990;SDS011;64673;52.276;10.560;2023-05-07T06:24:36;10.68;;;5.70;;
75990;SDS011;64673;52.276;10.560;2023-05-07T06:27:01;8.88;;;5.88;;
75990;SDS011;64673;52.276;10.560;2023-05-07T06:29:26;9.85;;;4.97;;
75990;SDS011;64673;52.276;10.560;2023-05-07T06:31:55;9.43;;;5.50;;
75990;SDS011;64673;52.276;10.560;2023-05-07T06:34:20;9.25;;;5.43;;
75990;SDS011;64673;52.276;10.560;2023-05-07T06:36:46;11.15;;;5.38;;
75990;SDS011;64673;52.276;10.560;2023-05-07T06:39:11;9.02;;;5.15;;
75990;SDS011;64673;52.276;10.560;2023-05-07T06:41:37;10.30;;;5.60;;
75990;SDS011;64673;52.276;10.560;2023-05-07T06:44:02;9.30;;;5.30;;
75990;SDS011;64673;52.276;10.560;2023-05-07T06:46:28;8.77;;;4.97;;
75990;SDS011;64673;52.276;10.560;2023-05-07T06:48:53;10.45;;;5.25;;
75990;SDS011;64673;52.276;10.560;2023-05-07T06:51:19;8.85;;;5.03;;
75990;SDS011;64673;52.276;10.560;2023-05-07T06:53:44;9.82;;;5.05;;
75990;SDS011;64673;52.276;10.560;2023-05-07T06:56:10;8.38;;;5.00;;
75990;SDS011;64673;52.276;10.560;2023-05-07T06:58:36;7.85;;;4.40;;
75990;SDS011;64673;52.276;10.560;2023-05-07T07:01:02;7.72;;;4.18;;
75990;SDS011;64673;52.276;10.560;2023-05-07T07:03:27;7.50;;;4.43;;
75990;SDS011;64673;52.276;10.560;2023-05-07T07:05:53;8.95;;;4.85;;
75990;SDS011;64673;52.276;10.560;2023-05-07T07:08:18;9.18;;;5.38;;
75990;SDS011;64673;52.276;10.560;2023-05-07T07:10:46;9.10;;;5.28;;
75990;SDS011;64673;52.276;10.560;2023-05-07T07:13:11;9.63;;;4.97;;
75990;SDS011;64673;52.276;10.560;2023-05-07T07:15:37;9.50;;;5.20;;
75990;SDS011;64673;52.276;10.560;2023-05-07T07:18:02;8.63;;;4.88;;
75990;SDS011;64673;52.276;10.560;2023-05-07T07:20:27;9.05;;;4.95;;
75990;SDS011;64673;52.276;10.560;2023-05-07T07:22:53;9.05;;;5.63;;
75990;SDS011;64673;52.276;10.560;2023-05-07T07:25:18;10.23;;;5.18;;
75990;SDS011;64673;52.276;10.560;2023-05-07T07:27:44;9.68;;;5.45;;
75990;SDS011;64673;52.276;10.560;2023-05-07T07:30:09;8.75;;;5.20;;
75990;SDS011;64673;52.276;10.560;2023-05-07T07:32:35;8.07;;;5.10;;
75990;SDS011;64673;52.276;10.560;2023-05-07T07:35:00;8.00;;;4.40;;
75990;SDS011;64673;52.276;10.560;2023-05-07T07:37:26;9.13;;;4.97;;
75990;SDS011;64673;52.276;10.560;2023-05-07T07:39:51;9.63;;;5.35;;
75990;SDS011;64673;52.276;10.560;2023-05-07T07:42:17;7.38;;;4.50;;
75990;SDS011;64673;52.276;10.560;2023-05-07T07:44:43;8.32;;;4.82;;
75990;SDS011;64673;52.276;10.560;2023-05-07T07:47:08;8.57;;;4.25;;
75990;SDS011;64673;52.276;10.560;2023-05-07T07:49:34;8.05;;;4.68;;
75990;SDS011;64673;52.276;10.560;2023-05-07T07:52:00;8.88;;;4.75;;
75990;SDS011;64673;52.276;10.560;2023-05-07T07:54:25;7.50;;;3.92;;
75990;SDS011;64673;52.276;10.560;2023-05-07T07:56:51;7.68;;;5.00;;
75990;SDS011;64673;52.276;10.560;2023-05-07T07:59:17;8.30;;;4.47;;
75990;SDS011;64673;52.276;10.560;2023-05-07T08:01:44;8.23;;;4.65;;
75990;SDS011;64673;52.276;10.560;2023-05-07T08:04:10;11.00;;;5.18;;
75990;SDS011;64673;52.276;10.560;2023-05-07T08:06:35;6.95;;;4.13;;
75990;SDS011;64673;52.276;10.560;2023-05-07T08:09:00;8.80;;;4.57;;
75990;SDS011;64673;52.276;10.560;2023-05-07T08:11:26;9.45;;;4.50;;
75990;SDS011;64673;52.276;10.560;2023-05-07T08:13:52;9.80;;;5.43;;
75990;SDS011;64673;52.276;10.560;2023-05-07T08:16:17;8.40;;;5.75;;
75990;SDS011;64673;52.276;10.560;2023-05-07T08:18:43;11.07;;;5.88;;
75990;SDS011;64673;52.276;10.560;2023-05-07T08:21:08;10.32;;;6.05;;
75990;SDS011;64673;52.276;10.560;2023-05-07T08:23:34;8.95;;;5.75;;
75990;SDS011;64673;52.276;10.560;2023-05-07T08:25:59;10.32;;;5.55;;
75990;SDS011;64673;52.276;10.560;2023-05-07T08:28:25;11.32;;;6.72;;
75990;SDS011;64673;52.276;10.560;2023-05-07T08:30:51;10.80;;;6.20;;
75990;SDS011;64673;52.276;10.560;2023-05-07T08:33:16;9.32;;;5.55;;
75990;SDS011;64673;52.276;10.560;2023-05-07T08:35:41;9.45;;;5.57;;
75990;SDS011;64673;52.276;10.560;2023-05-07T08:38:07;9.23;;;5.10;;
75990;SDS011;64673;52.276;10.560;2023-05-07T08:40:34;12.77;;;5.88;;
75990;SDS011;64673;52.276;10.560;2023-05-07T08:43:02;8.82;;;5.82;;
75990;SDS011;64673;52.276;10.560;2023-05-07T08:45:29;9.93;;;5.88;;
75990;SDS011;64673;52.276;10.560;2023-05-07T08:48:04;9.05;;;5.65;;
75990;SDS011;64673;52.276;10.560;2023-05-07T08:50:37;8.73;;;5.35;;
75990;SDS011;64673;52.276;10.560;2023-05-07T08:53:03;6.93;;;4.65;;
75990;SDS011;64673;52.276;10.560;2023-05-07T08:55:29;9.20;;;5.70;;
75990;SDS011;64673;52.276;10.560;2023-05-07T08:57:55;7.50;;;4.50;;
75990;SDS011;64673;52.276;10.560;2023-05-07T09:00:20;6.93;;;4.80;;
75990;SDS011;64673;52.276;10.560;2023-05-07T09:02:46;7.53;;;4.68;;
75990;SDS011;64673;52.276;10.560;2023-05-07T09:05:11;8.40;;;4.78;;
75990;SDS011;64673;52.276;10.560;2023-05-07T09:07:36;7.88;;;4.93;;
75990;SDS011;64673;52.276;10.560;2023-05-07T09:10:02;8.13;;;4.78;;
75990;SDS011;64673;52.276;10.560;2023-05-07T09:12:29;8.43;;;5.20;;
75990;SDS011;64673;52.276;10.560;2023-05-07T09:14:54;8.82;;;5.07;;
75990;SDS011;64673;52.276;10.560;2023-05-07T09:17:20;7.68;;;4.85;;
75990;SDS011;64673;52.276;10.560;2023-05-07T09:19:45;7.72;;;4.35;;
75990;SDS011;64673;52.276;10.560;2023-05-07T09:22:11;10.38;;;4.70;;
75990;SDS011;64673;52.276;10.560;2023-05-07T09:24:37;7.82;;;4.70;;
75990;SDS011;64673;52.276;10.560;2023-05-07T09:27:06;9.40;;;5.13;;
75990;SDS011;64673;52.276;10.560;2023-05-07T09:29:33;7.28;;;4.22;;
75990;SDS011;64673;52.276;10.560;2023-05-07T09:32:01;8.10;;;4.53;;
75990;SDS011;64673;52.276;10.560;2023-05-07T09:34:28;8.18;;;4.20;;
75990;SDS011;64673;52.276;10.560;2023-05-07T09:36:54;6.65;;;4.43;;
75990;SDS011;64673;52.276;10.560;2023-05-07T09:39:20;7.78;;;4.43;;
75990;SDS011;64673;52.276;10.560;2023-05-07T09:41:45;6.47;;;3.78;;
75990;SDS011;64673;52.276;10.560;2023-05-07T09:44:15;7.25;;;3.60;;
75990;SDS011;64673;52.276;10.560;2023-05-07T09:46:42;6.00;;;4.00;;
75990;SDS011;64673;52.276;10.560;2023-05-07T09:49:14;6.60;;;3.67;;
75990;SDS011;64673;52.276;10.560;2023-05-07T09:51:49;7.28;;;4.28;;
75990;SDS011;64673;52.276;10.560;2023-05-07T09:54:16;6.93;;;3.42;;
75990;SDS011;64673;52.276;10.560;2023-05-07T09:56:42;5.60;;;3.45;;
75990;SDS011;64673;52.276;10.560;2023-05-07T09:59:13;5.68;;;3.80;;
75990;SDS011;64673;52.276;10.560;2023-05-07T10:01:41;5.03;;;3.05;;
75990;SDS011;64673;52.276;10.560;2023-05-07T10:04:07;5.45;;;3.22;;
75990;SDS011;64673;52.276;10.560;2023-05-07T10:06:34;5.88;;;3.42;;
75990;SDS011;64673;52.276;10.560;2023-05-07T10:09:00;5.28;;;3.13;;
75990;SDS011;64673;52.276;10.560;2023-05-07T10:11:27;5.22;;;3.28;;
75990;SDS011;64673;52.276;10.560;2023-05-07T10:13:53;5.85;;;3.50;;
75990;SDS011;64673;52.276;10.560;2023-05-07T10:16:19;6.50;;;4.07;;
75990;SDS011;64673;52.276;10.560;2023-05-07T10:18:46;5.80;;;3.85;;
75990;SDS011;64673;52.276;10.560;2023-05-07T10:23:49;6.32;;;4.10;;
75990;SDS011;64673;52.276;10.560;2023-05-07T10:26:35;7.72;;;3.88;;
75990;SDS011;64673;52.276;10.560;2023-05-07T10:29:07;7.65;;;3.95;;
75990;SDS011;64673;52.276;10.560;2023-05-07T10:34:32;8.02;;;5.00;;
75990;SDS011;64673;52.276;10.560;2023-05-07T10:37:02;7.13;;;4.25;;
75990;SDS011;64673;52.276;10.560;2023-05-07T10:39:29;6.68;;;3.83;;
75990;SDS011;64673;52.276;10.560;2023-05-07T10:41:55;7.07;;;4.00;;
75990;SDS011;64673;52.276;10.560;2023-05-07T10:44:26;5.80;;;3.72;;
75990;SDS011;64673;52.276;10.560;2023-05-07T10:54:44;5.45;;;3.38;;
75990;SDS011;64673;52.276;10.560;2023-05-07T11:00:01;4.47;;;2.95;;
75990;SDS011;64673;52.276;10.560;2023-05-07T11:05:20;3.85;;;2.60;;
75990;SDS011;64673;52.276;10.560;2023-05-07T11:08:02;4.00;;;2.60;;
75990;SDS011;64673;52.276;10.560;2023-05-07T11:13:14;3.97;;;2.58;;
75990;SDS011;64673;52.276;10.560;2023-05-07T11:15:43;4.00;;;2.20;;
75990;SDS011;64673;52.276;10.560;2023-05-07T11:18:11;3.72;;;2.60;;
75990;SDS011;64673;52.276;10.560;2023-05-07T11:26:03;3.38;;;2.20;;
75990;SDS011;64673;52.276;10.560;2023-05-07T11:28:36;3.95;;;2.70;;
75990;SDS011;64673;52.276;10.560;2023-05-07T11:31:03;3.55;;;2.20;;
75990;SDS011;64673;52.276;10.560;2023-05-07T11:33:32;4.18;;;2.38;;
75990;SDS011;64673;52.276;10.560;2023-05-07T11:35:57;6.55;;;3.17;;
75990;SDS011;64673;52.276;10.560;2023-05-07T11:38:24;5.15;;;3.05;;
75990;SDS011;64673;52.276;10.560;2023-05-07T11:43:16;4.47;;;2.92;;
75990;SDS011;64673;52.276;10.560;2023-05-07T11:45:41;4.68;;;3.20;;
75990;SDS011;64673;52.276;10.560;2023-05-07T11:48:07;4.57;;;3.00;;
75990;SDS011;64673;52.276;10.560;2023-05-07T11:50:32;4.40;;;3.00;;
75990;SDS011;64673;52.276;10.560;2023-05-07T11:52:58;4.80;;;3.22;;
75990;SDS011;64673;52.276;10.560;2023-05-07T11:55:23;6.78;;;3.05;;
75990;SDS011;64673;52.276;10.560;2023-05-07T11:57:49;4.85;;;3.20;;
75990;SDS011;64673;52.276;10.560;2023-05-07T12:00:15;5.05;;;3.50;;
75990;SDS011;64673;52.276;10.560;2023-05-07T12:02:41;6.82;;;3.78;;
75990;SDS011;64673;52.276;10.560;2023-05-07T12:05:07;5.68;;;3.55;;
75990;SDS011;64673;52.276;10.560;2023-05-07T12:07:33;5.32;;;3.42;;
75990;SDS011;64673;52.276;10.560;2023-05-07T12:09:59;5.78;;;3.70;;
75990;SDS011;64673;52.276;10.560;2023-05-07T12:12:24;6.25;;;3.80;;
75990;SDS011;64673;52.276;10.560;2023-05-07T12:14:51;8.45;;;3.50;;
75990;SDS011;64673;52.276;10.560;2023-05-07T12:17:17;6.15;;;3.50;;
75990;SDS011;64673;52.276;10.560;2023-05-07T12:19:43;7.45;;;3.97;;
75990;SDS011;64673;52.276;10.560;2023-05-07T12:22:09;6.88;;;4.03;;
75990;SDS011;64673;52.276;10.560;2023-05-07T12:24:45;6.18;;;3.78;;
75990;SDS011;64673;52.276;10.560;2023-05-07T12:27:12;6.10;;;4.00;;
75990;SDS011;64673;52.276;10.560;2023-05-07T12:29:38;5.30;;;3.33;;
75990;SDS011;64673;52.276;10.560;2023-05-07T12:32:05;4.68;;;3.20;;
75990;SDS011;64673;52.276;10.560;2023-05-07T12:34:31;6.88;;;3.85;;
75990;SDS011;64673;52.276;10.560;2023-05-07T12:36:57;5.78;;;4.15;;
75990;SDS011;64673;52.276;10.560;2023-05-07T12:39:26;5.75;;;3.28;;
75990;SDS011;64673;52.276;10.560;2023-05-07T12:41:52;5.30;;;3.22;;
75990;SDS011;64673;52.276;10.560;2023-05-07T12:44:22;7.88;;;3.72;;
75990;SDS011;64673;52.276;10.560;2023-05-07T12:46:48;5.57;;;3.63;;
75990;SDS011;64673;52.276;10.560;2023-05-07T12:49:14;5.00;;;3.30;;
75990;SDS011;64673;52.276;10.560;2023-05-07T12:51:39;5.28;;;3.47;;
75990;SDS011;64673;52.276;10.560;2023-05-07T12:54:05;5.07;;;3.20;;
75990;SDS011;64673;52.276;10.560;2023-05-07T12:56:30;5.35;;;3.63;;
75990;SDS011;64673;52.276;10.560;2023-05-07T12:58:59;4.80;;;3.28;;
75990;SDS011;64673;52.276;10.560;2023-05-07T13:01:28;5.30;;;3.00;;
75990;SDS011;64673;52.276;10.560;2023-05-07T13:03:54;4.72;;;3.22;;
75990;SDS011;64673;52.276;10.560;2023-05-07T13:06:20;5.43;;;3.55;;
75990;SDS011;64673;52.276;10.560;2023-05-07T13:08:45;5.43;;;3.00;;
75990;SDS011;64673;52.276;10.560;2023-05-07T13:11:11;4.63;;;3.35;;
75990;SDS011;64673;52.276;10.560;2023-05-07T13:13:37;5.03;;;3.15;;
75990;SDS011;64673;52.276;10.560;2023-05-07T13:16:04;4.50;;;2.70;;
75990;SDS011;64673;52.276;10.560;2023-05-07T13:18:30;5.75;;;2.70;;
75990;SDS011;64673;52.276;10.560;2023-05-07T13:20:57;3.47;;;2.45;;
75990;SDS011;64673;52.276;10.560;2023-05-07T13:23:22;6.18;;;3.22;;
75990;SDS011;64673;52.276;10.560;2023-05-07T13:25:48;4.53;;;3.17;;
75990;SDS011;64673;52.276;10.560;2023-05-07T13:28:15;4.50;;;2.90;;
75990;SDS011;64673;52.276;10.560;2023-05-07T13:30:41;4.20;;;2.70;;
75990;SDS011;64673;52.276;10.560;2023-05-07T13:33:06;4.53;;;2.67;;
75990;SDS011;64673;52.276;10.560;2023-05-07T13:35:32;4.35;;;2.85;;
75990;SDS011;64673;52.276;10.560;2023-05-07T13:37:58;6.53;;;3.03;;
75990;SDS011;64673;52.276;10.560;2023-05-07T13:40:23;3.78;;;2.65;;
75990;SDS011;64673;52.276;10.560;2023-05-07T13:42:49;4.30;;;2.83;;
75990;SDS011;64673;52.276;10.560;2023-05-07T13:45:15;4.25;;;2.88;;
75990;SDS011;64673;52.276;10.560;2023-05-07T13:47:41;3.50;;;2.60;;
75990;SDS011;64673;52.276;10.560;2023-05-07T13:50:07;5.50;;;2.63;;
75990;SDS011;64673;52.276;10.560;2023-05-07T13:52:38;4.15;;;2.72;;
75990;SDS011;64673;52.276;10.560;2023-05-07T13:55:06;3.60;;;2.20;;
75990;SDS011;64673;52.276;10.560;2023-05-07T13:57:32;3.63;;;2.55;;
75990;SDS011;64673;52.276;10.560;2023-05-07T13:59:57;5.25;;;2.60;;
75990;SDS011;64673;52.276;10.560;2023-05-07T14:02:22;6.05;;;3.05;;
75990;SDS011;64673;52.276;10.560;2023-05-07T14:04:48;3.97;;;2.60;;
75990;SDS011;64673;52.276;10.560;2023-05-07T14:07:13;4.40;;;2.75;;
75990;SDS011;64673;52.276;10.560;2023-05-07T14:09:38;4.03;;;2.90;;
75990;SDS011;64673;52.276;10.560;2023-05-07T14:12:04;4.22;;;2.75;;
75990;SDS011;64673;52.276;10.560;2023-05-07T14:14:30;4.05;;;3.30;;
75990;SDS011;64673;52.276;10.560;2023-05-07T14:16:55;4.35;;;3.08;;
75990;SDS011;64673;52.276;10.560;2023-05-07T14:19:22;4.57;;;2.70;;
75990;SDS011;64673;52.276;10.560;2023-05-07T14:21:47;4.68;;;2.80;;
75990;SDS011;64673;52.276;10.560;2023-05-07T14:24:13;4.55;;;3.03;;
75990;SDS011;64673;52.276;10.560;2023-05-07T14:26:38;6.70;;;3.47;;
75990;SDS011;64673;52.276;10.560;2023-05-07T14:29:03;7.25;;;3.38;;
75990;SDS011;64673;52.276;10.560;2023-05-07T14:31:29;5.05;;;3.40;;
75990;SDS011;64673;52.276;10.560;2023-05-07T14:33:54;6.68;;;3.30;;
75990;SDS011;64673;52.276;10.560;2023-05-07T14:36:20;4.43;;;3.42;;
75990;SDS011;64673;52.276;10.560;2023-05-07T14:38:46;5.32;;;3.35;;
75990;SDS011;64673;52.276;10.560;2023-05-07T14:41:12;5.28;;;3.63;;
75990;SDS011;64673;52.276;10.560;2023-05-07T14:43:37;5.97;;;3.63;;
75990;SDS011;64673;52.276;10.560;2023-05-07T14:46:02;4.85;;;3.53;;
75990;SDS011;64673;52.276;10.560;2023-05-07T14:48:28;5.45;;;4.03;;
75990;SDS011;64673;52.276;10.560;2023-05-07T14:50:54;5.70;;;3.88;;